Juan Salcedo

Olheiro-Chefe - Pachuca
22 Fev 2027
Segunda-feira
Processo

Personalidade

Adaptabilidade (2) Ambição (2) Controvérsia (11) Lealdade (11) Pressão (6) Profissionalismo (2) Espírito Esportivo (7) Temperamento (7)

Perfil

Estilo de Treinamento Democrático
Licença Continental C
Determinação 6
Gestão de Pessoas 10
Motivação 9
Disciplina 9
Satisfação no Trabalho
50%
Fadiga
0%
Função Olheiro-Chefe
Salário 62.5K p/s
Contrato 14.03.2027

Desempenho

Comportamento Normal
Eficácia do Treinamento
29%
Desenvolvimento do Jogador
60%
Prevenção de Lesões
35%
Implementação Tática
60%

Eventos Recentes

Participou de uma reunião de recrutamento agora
Negociação de contrato iniciada agora
Negociação de contrato iniciada agora
Avaliou um jogador agora
Negociação de contrato iniciada agora
Negociação de contrato iniciada agora
Negociação de contrato iniciada agora
Avaliou um jogador agora

Monitorando agora

174
Jogador Clube Status Habilidade Confiança Observado Última observação Último voto
Cundo Leicester City Ativo 135 / 144 40% 4 21.02.2027 -
Yassine Khalifi Charleroi Ativo 102 / 115 40% 1 21.02.2027 -
Ethan Williams Peterborough United Ativo 114 / 123 40% 1 21.02.2027 -
Thiago Szkaluba Oliveirense Ativo 100 / 90 40% 1 20.02.2027 -
Mamadou Diakhon Club Brugge Ativo 126 / 126 40% 1 20.02.2027 -
Manu Rodríguez Gijón Ativo 111 / 101 40% 1 20.02.2027 -
Duarte Cunha Porto Ativo 102 / 108 40% 1 17.02.2027 -
Olívio Tomé Benfica Ativo 102 / 120 40% 1 17.02.2027 -
Keagan Hlatshwayo SuperSport United Ativo 124 / 129 40% 1 15.02.2027 -
Kauã Elias Shakhtar Ativo 125 / 145 40% 1 15.02.2027 -
Yael Padilla Tijuana Ativo 114 / 112 40% 2 14.02.2027 -
Thorgan Nainggolan Mouscron Ativo 98 / 124 40% 2 14.02.2027 -
Monty Batlhabane Polokwane City Ativo 91 / 108 40% 2 14.02.2027 -
Luís Guilherme Sporting CP Ativo 121 / 139 40% 2 12.02.2027 -
Asanele Bonani Chippa United Ativo 96 / 90 40% 1 12.02.2027 -
Kamarni Ryan Arzignano Ativo 99 / 96 40% 2 11.02.2027 -
Pedro Zenit Ativo 123 / 137 40% 2 11.02.2027 -
Gilbert Bandama Hapoel Kfar Saba Ativo 108 / 106 40% 1 11.02.2027 -
Jonathan Arteaga Veracruz Ativo 119 / 130 40% 6 09.02.2027 -
Roger Hinojo Espanyol Ativo 118 / 120 40% 3 09.02.2027 -
Martin Gjorgievski Zbrojovka Brno Ativo 106 / 127 40% 1 09.02.2027 -
Álex Marchal Real Sociedad Ativo 114 / 122 40% 3 08.02.2027 -
Rhys Chadwick Peterborough United Ativo 86 / 117 40% 1 08.02.2027 -
James Dornelly Peterborough United Ativo 92 / 106 40% 1 07.02.2027 -
André Miranda Porto Ativo 98 / 111 40% 1 07.02.2027 -
Riley Owen Pergolettese Ativo 111 / 105 40% 2 06.02.2027 -
Tiago Pucciarelli FK Senica Ativo 97 / 99 40% 1 06.02.2027 -
Lander Astiazarán Real Sociedad Ativo 106 / 120 40% 1 05.02.2027 -
Gorka Gorosabel Real Sociedad Ativo 96 / 112 40% 1 05.02.2027 -
Bautista Carboni Basaksehir Ativo 105 / 115 40% 2 04.02.2027 -
Daniel Awuni Aduana Stars Ativo 88 / 102 40% 2 04.02.2027 -
Reda Laalaoui Westerlo Ativo 98 / 114 40% 1 04.02.2027 -
Milan Roganović Partizan Ativo 104 / 114 40% 2 01.02.2027 -
Thamsanqa Mokoena Ajax Cape Town Ativo 97 / 101 40% 1 01.02.2027 -
Jonás Luna Osasuna Ativo 114 / 117 40% 1 29.01.2027 -
Ishmael Addo Heart of Lions Ativo 72 / 84 40% 1 27.01.2027 -
Uriël Van Aalst Willem II Ativo 106 / 103 40% 1 27.01.2027 -
Vinícius Lira Santos Ativo 119 / 125 40% 1 26.01.2027 -
Hlompho Mokoena SuperSport United Ativo 96 / 106 40% 2 21.01.2027 -
Ignacio Perruzzi San Lorenzo Ativo 129 / 125 40% 1 21.01.2027 -
Facundo Di Biasi Gimnasia La Plata Ativo 119 / 123 40% 2 20.01.2027 -
Pape Diong Westerlo Ativo 112 / 121 40% 1 20.01.2027 -
Kyriani Sabbe Club Brugge Ativo 130 / 133 40% 1 20.01.2027 -
Nacer Tielemans Mouscron Ativo 139 / 138 40% 3 19.01.2027 -
Abdul Bukari WAFA Ativo 85 / 84 40% 1 19.01.2027 -
Toni Tamarit Alverca Ativo 109 / 128 40% 1 19.01.2027 -
Bernardo Lima Porto Ativo 90 / 95 40% 2 17.01.2027 -
José Pachuca Puebla Ativo 108 / 108 40% 1 17.01.2027 -
Agustín De la Cuesta Racing Ativo 104 / 115 40% 1 15.01.2027 -
Itumeleng Zungu Free State Stars Ativo 116 / 123 40% 1 14.01.2027 -
Thiago Helguera Braga Ativo 127 / 123 40% 3 13.01.2027 -
Salvador Blopá Sporting CP Ativo 117 / 117 40% 1 13.01.2027 -
Daniel Herrera Cortulua Ativo 108 / 123 40% 2 12.01.2027 -
Lucas Agazzi Defensor Sporting Ativo 123 / 126 40% 1 09.01.2027 -
Davinchi Getafe Ativo 107 / 121 40% 1 09.01.2027 -
Dylan Lawlor Cardiff City Ativo 106 / 113 40% 1 09.01.2027 -
Relebohile Mofokeng Orlando Pirates Ativo 116 / 121 40% 6 31.12.2026 -
Diego Lainez Tigres Rejeitado 124 / 128 40% 11 31.12.2026 Rejeitar
Luca Orellano Monterrey Ativo 127 / 127 40% 2 31.12.2026 -
Joaquín Gho Argentinos Juniors Ativo 119 / 119 40% 3 30.12.2026 -
Helinho Toluca Ativo 135 / 134 40% 2 30.12.2026 -
Ali Soliman Masr El Makasa Ativo 116 / 125 40% 4 30.12.2026 -
Jefry Zapata Once Caldas Ativo 120 / 112 40% 3 28.12.2026 -
César Huerta Pumas UNAM Rejeitado 125 / 123 40% 3 28.12.2026 Rejeitar
Alejo Dramisino Honved Ativo 119 / 119 40% 1 28.12.2026 -
Luka Romero Cruz Azul Perdido 129 / 123 40% 3 27.12.2026 -
Matías Pellegrini Vélez Ativo 120 / 116 40% 1 27.12.2026 -
Aarón Molinas Defensa y Justicia Ativo 120 / 124 40% 4 26.12.2026 -
Dries Fellaini KV Oostende Ativo 128 / 118 40% 1 26.12.2026 -
Angelo Gattermayer Wolfsberger AC Rejeitado 129 / 123 40% 1 26.12.2026 Mais informações
Franco Díaz KV Oostende Ativo 129 / 129 40% 4 25.12.2026 -
Franco Romero Toluca Ativo 129 / 131 40% 2 25.12.2026 -
Pablo Ramón Racing Club Ativo 125 / 132 40% 1 25.12.2026 -
Efraín Álvarez Guadalajara Ativo 122 / 125 40% 1 25.12.2026 -
Iker Benito Queretaro Ativo 130 / 120 40% 2 24.12.2026 -
Camilo Durán Bloemfontein Celtic Ativo 131 / 112 40% 2 23.12.2026 -
Itumeleng Tau Ajax Cape Town Ativo 110 / 121 40% 5 23.12.2026 -
Alex Luna Instituto Ativo 136 / 128 40% 2 23.12.2026 -
Alan Lescano Argentinos Juniors Rejeitado 131 / 124 40% 8 22.12.2026 Rejeitar
Patrik Wålemark Lech Ativo 131 / 130 40% 3 20.12.2026 -
Camilo Perez Cortulua Ativo 127 / 120 40% 6 19.12.2026 -
Ibrahim Tarek Masr El Makasa Ativo 122 / 122 40% 2 18.12.2026 -
Oleh Ocheretko Shakhtar Ativo 128 / 123 40% 1 18.12.2026 -
Franco Watson Lanús Ativo 127 / 124 40% 2 17.12.2026 -
Tomás O'Connor Gimnasia y Esgrima Ativo 119 / 121 40% 2 17.12.2026 -
Juan Bisanz Huracán Ativo 122 / 132 40% 6 16.12.2026 -
Mariano Bracamonte Deportivo Riestra Ativo 112 / 121 40% 5 16.12.2026 -
Rodrigo Herrera Newell's Old Boys Ativo 125 / 124 40% 2 16.12.2026 -
Agustín Sández Rosario Central Ativo 123 / 124 40% 1 16.12.2026 -
Robert FC Copenhagen Ativo 131 / 129 40% 1 14.12.2026 -
Matko Miljevic Racing Club Rejeitado 121 / 133 40% 6 13.12.2026 Rejeitar
Alejandro Piedrahita Deportivo Pereira Ativo 130 / 127 40% 6 13.12.2026 -
Manuel Mónaco Sarmiento Ativo 124 / 120 40% 2 11.12.2026 -
Alexander Díaz Deportivo Riestra Ativo 122 / 118 40% 3 11.12.2026 -
Felipe Peña Biafore Lanús Rejeitado 131 / 132 40% 2 11.12.2026 Mais informações
Jesús Garza Tigres Ativo 125 / 128 40% 1 10.12.2026 -
Johan Martínez Deportivo Cali Ativo 127 / 117 40% 2 09.12.2026 -
Juan Bezerra Zamalek Rejeitado 130 / 112 40% 2 09.12.2026 Mais informações
Akinkunmi Amoo Ismaily Ativo 117 / 128 40% 1 09.12.2026 -
Ramiro Sordo Santos Laguna Ativo 121 / 122 40% 4 05.12.2026 -
Emerson Batalla Atletico Bucaramanga Ativo 126 / 121 40% 1 04.12.2026 -
Saba Sazonov Juve Stabia Ativo 120 / 114 40% 1 04.12.2026 -
Jesús Orozco Chiquete Cruz Azul Ativo 134 / 128 40% 1 04.12.2026 -
Vicente Poggi Godoy Cruz Ativo 124 / 127 40% 1 04.12.2026 -
Franco Ibarra Rosario Central Ativo 130 / 128 40% 3 02.12.2026 -
Ramón Juárez Club America Rejeitado 129 / 134 40% 1 02.12.2026 Mais informações
Juan Cruz de los Santos Nacional Ativo 125 / 123 40% 1 02.12.2026 -
César Ibáñez Huracán Ativo 129 / 128 40% 3 01.12.2026 -
Tomás Adoryan Banfield Ativo 116 / 119 40% 1 28.11.2026 -
Facundo Zabala Independiente Ativo 125 / 125 40% 3 27.11.2026 -
Ramiro Hernandes Belgrano Ativo 115 / 127 40% 2 27.11.2026 -
Kevin Lomónaco Independiente Ativo 132 / 128 40% 1 27.11.2026 -
Santiago González Tigre Ativo 127 / 131 40% 1 26.11.2026 -
César Araújo Tigres Ativo 125 / 131 40% 1 26.11.2026 -
Jermein Peña Junior Ativo 122 / 123 40% 1 26.11.2026 -
Alexis Cuello San Lorenzo Ativo 127 / 124 40% 6 25.11.2026 -
Dylan Borrero America de Cali Ativo 122 / 123 40% 2 25.11.2026 -
Siro Rosané Estudiantes Ativo 117 / 113 40% 3 25.11.2026 -
Imanol Machuca Independiente Ativo 129 / 121 40% 4 23.11.2026 -
Suleiman Camara Slovan Bratislava Ativo 117 / 129 40% 1 23.11.2026 -
Joaquín García Vélez Ativo 131 / 131 40% 2 22.11.2026 -
Erik Lira Cruz Azul Ativo 128 / 138 40% 1 20.11.2026 -
Valentín Depietri Talleres Ativo 118 / 123 40% 1 20.11.2026 -
Mateo Garavito Deportivo Pasto Ativo 118 / 125 40% 1 20.11.2026 -
Fidel Ambríz Monterrey Rejeitado 123 / 134 40% 1 19.11.2026 Mais informações
Leandro Andrade Polissia Ativo 143 / 136 40% 2 16.11.2026 -
Augusto Schott Talleres Ativo 122 / 125 40% 1 14.11.2026 -
Pedro Vite Pumas UNAM Ativo 118 / 126 40% 3 13.11.2026 -
Tiago Palacios Estudiantes Ativo 133 / 129 40% 2 13.11.2026 -
Kevin Zenón Boca Juniors Ativo 132 / 130 40% 2 13.11.2026 -
Brian Gutiérrez Guadalajara Ativo 135 / 131 40% 1 11.11.2026 -
Jaminton Campaz Rosario Central Ativo 130 / 124 40% 2 10.11.2026 -
Luciano Boggio Nacional Ativo 120 / 118 40% 3 10.11.2026 -
Tomás Silva Platense Ativo 131 / 130 40% 1 07.11.2026 -
Matías Fernández Independiente Rivadavia Ativo 114 / 124 40% 1 06.11.2026 -
Oscar Salomón Newell's Old Boys Ativo 126 / 123 40% 2 05.11.2026 -
Ramiro Ruiz Rodríguez Atlético Tucumán Ativo 126 / 125 40% 1 29.10.2026 -
Fernando Martínez Central Córdoba SdE Ativo 117 / 114 40% 1 28.10.2026 -
Pedro Ramírez Deportivo Riestra Ativo 116 / 121 40% 1 26.10.2026 -
Adrián Sánchez Belgrano Ativo 122 / 123 40% 2 23.10.2026 -
Matías Galarza Talleres Rejeitado 128 / 130 40% 1 19.10.2026 Mais informações
Mateo Zuleta Once Caldas Ativo 113 / 118 40% 1 14.10.2026 -
Marcos López San Martín Ativo 136 / 129 40% 3 13.10.2026 -
Leandro Lozano Boca Juniors Ativo 129 / 127 40% 1 11.10.2026 -
Sergio Quintero La Equidad Rejeitado 140 / 144 40% 1 10.10.2026 Mais informações
Martín Ortega Newell's Old Boys Ativo 120 / 125 40% 1 10.10.2026 -
Ian Garguez Palestino Ativo 107 / 113 40% 1 16.09.2026 -
Obed Vargas Atlético Madrid Ativo 127 / 133 40% 1 16.09.2026 -
Leonardo Barroso Chicago Fire Ativo 101 / 115 40% 1 15.09.2026 -
Marco Oroná Antofagasta Ativo 102 / 98 40% 1 15.09.2026 -
Valentino Massi Sarmiento Ativo 96 / 105 40% 1 15.09.2026 -
Bianneider Tamayo Universidad de Chile Ativo 108 / 109 40% 1 13.09.2026 -
Lucas Quintana Cerro Porteno Ativo 111 / 113 40% 1 13.09.2026 -
Tiago Marghetich Quilmes Ativo 86 / 97 40% 1 12.09.2026 -
Thiago Martínez Defensa y Justicia Ativo 98 / 102 40% 1 12.09.2026 -
Pablo Aguiar Gimnasia La Plata Ativo 98 / 109 40% 1 12.09.2026 -
Iker Córdoba Valencia Ativo 107 / 106 40% 2 11.09.2026 -
Stefan Džodić Almería Ativo 99 / 109 40% 1 11.09.2026 -
Luther Phiri SuperSport United Ativo 118 / 121 40% 1 11.09.2026 -
Alejo Fernández Kayserispor Ativo 87 / 98 40% 1 10.09.2026 -
Agustín Obregón River Plate Ativo 100 / 120 40% 1 10.09.2026 -
Mauricio Amaro Atlanta United FC Ativo 126 / 131 40% 1 07.09.2026 -
Felipe Faúndez O'Higgins Ativo 102 / 107 40% 1 03.09.2026 -
Kevin Contreras Union Espanola Ativo 83 / 94 40% 1 03.09.2026 -
Lucio Greco San Lorenzo Ativo 88 / 95 40% 1 03.09.2026 -
Alejandro Leiva Patronato Ativo 96 / 102 40% 1 02.09.2026 -
Joaquín Soria Talleres Ativo 88 / 96 40% 1 01.09.2026 -
Joaquín Silva Santiago Wanderers Ativo 86 / 93 40% 1 01.09.2026 -
Agustín Moreno All Boys Ativo 91 / 94 40% 1 01.09.2026 -
Mauro Carrizo Atlético Tucumán Ativo 94 / 113 40% 2 31.08.2026 -
Santino Piccinetti Huracán Ativo 102 / 105 40% 1 31.08.2026 -
Agustín Gálvez Atlético Tucumán Ativo 88 / 94 40% 1 25.08.2026 -
Ezequiel Centurión River Plate Ativo 124 / 120 40% 1 01.08.2026 -
Lucas Bruera Carabobo Ativo 110 / 118 40% 1 01.08.2026 -